sensor_id;sensor_type;location;lat;lon;timestamp;P1;durP1;ratioP1;P2;durP2;ratioP2
7707;SDS011;3896;48.758;8.888;2023-05-10T00:00:16;0.00;;;0.00;;
7707;SDS011;3896;48.758;8.888;2023-05-10T00:02:42;0.83;;;0.10;;
7707;SDS011;3896;48.758;8.888;2023-05-10T00:05:07;0.23;;;0.23;;
7707;SDS011;3896;48.758;8.888;2023-05-10T00:07:33;1.50;;;0.10;;
7707;SDS011;3896;48.758;8.888;2023-05-10T00:09:59;0.10;;;0.10;;
7707;SDS011;3896;48.758;8.888;2023-05-10T00:12:24;0.20;;;0.20;;
7707;SDS011;3896;48.758;8.888;2023-05-10T00:14:50;3.90;;;0.20;;
7707;SDS011;3896;48.758;8.888;2023-05-10T00:17:15;0.10;;;0.10;;
7707;SDS011;3896;48.758;8.888;2023-05-10T00:19:41;0.10;;;0.10;;
7707;SDS011;3896;48.758;8.888;2023-05-10T00:22:06;0.10;;;0.10;;
7707;SDS011;3896;48.758;8.888;2023-05-10T00:24:32;0.97;;;0.30;;
7707;SDS011;3896;48.758;8.888;2023-05-10T00:26:57;0.20;;;0.20;;
7707;SDS011;3896;48.758;8.888;2023-05-10T00:29:23;2.53;;;0.40;;
7707;SDS011;3896;48.758;8.888;2023-05-10T00:31:49;0.10;;;0.10;;
7707;SDS011;3896;48.758;8.888;2023-05-10T00:34:14;0.23;;;0.23;;
7707;SDS011;3896;48.758;8.888;2023-05-10T00:36:40;0.20;;;0.20;;
7707;SDS011;3896;48.758;8.888;2023-05-10T00:39:05;0.20;;;0.20;;
7707;SDS011;3896;48.758;8.888;2023-05-10T00:41:31;0.73;;;0.23;;
7707;SDS011;3896;48.758;8.888;2023-05-10T00:43:57;0.53;;;0.20;;
7707;SDS011;3896;48.758;8.888;2023-05-10T00:46:23;0.60;;;0.30;;
7707;SDS011;3896;48.758;8.888;2023-05-10T00:48:50;0.20;;;0.20;;
7707;SDS011;3896;48.758;8.888;2023-05-10T00:51:16;0.40;;;0.30;;
7707;SDS011;3896;48.758;8.888;2023-05-10T00:53:42;0.13;;;0.10;;
7707;SDS011;3896;48.758;8.888;2023-05-10T00:56:10;0.70;;;0.20;;
7707;SDS011;3896;48.758;8.888;2023-05-10T00:58:36;0.20;;;0.20;;
7707;SDS011;3896;48.758;8.888;2023-05-10T01:01:01;0.20;;;0.20;;
7707;SDS011;3896;48.758;8.888;2023-05-10T01:03:27;0.20;;;0.20;;
7707;SDS011;3896;48.758;8.888;2023-05-10T01:05:53;0.37;;;0.30;;
7707;SDS011;3896;48.758;8.888;2023-05-10T01:08:20;0.30;;;0.30;;
7707;SDS011;3896;48.758;8.888;2023-05-10T01:10:46;0.10;;;0.10;;
7707;SDS011;3896;48.758;8.888;2023-05-10T01:13:14;0.10;;;0.10;;
7707;SDS011;3896;48.758;8.888;2023-05-10T01:15:53;2.10;;;0.20;;
7707;SDS011;3896;48.758;8.888;2023-05-10T01:18:19;0.27;;;0.20;;
7707;SDS011;3896;48.758;8.888;2023-05-10T01:20:45;0.17;;;0.17;;
7707;SDS011;3896;48.758;8.888;2023-05-10T01:23:31;0.17;;;0.17;;
7707;SDS011;3896;48.758;8.888;2023-05-10T01:26:14;0.23;;;0.23;;
7707;SDS011;3896;48.758;8.888;2023-05-10T01:29:04;0.30;;;0.20;;
7707;SDS011;3896;48.758;8.888;2023-05-10T01:34:20;0.33;;;0.20;;
7707;SDS011;3896;48.758;8.888;2023-05-10T01:36:58;0.20;;;0.20;;
7707;SDS011;3896;48.758;8.888;2023-05-10T01:39:32;0.30;;;0.30;;
7707;SDS011;3896;48.758;8.888;2023-05-10T01:42:16;2.47;;;1.30;;
7707;SDS011;3896;48.758;8.888;2023-05-10T01:44:49;0.30;;;0.30;;
7707;SDS011;3896;48.758;8.888;2023-05-10T01:47:25;0.60;;;0.60;;
7707;SDS011;3896;48.758;8.888;2023-05-10T01:50:02;0.23;;;0.23;;
7707;SDS011;3896;48.758;8.888;2023-05-10T01:52:33;0.30;;;0.30;;
7707;SDS011;3896;48.758;8.888;2023-05-10T01:55:06;0.20;;;0.20;;
7707;SDS011;3896;48.758;8.888;2023-05-10T01:57:35;0.30;;;0.30;;
7707;SDS011;3896;48.758;8.888;2023-05-10T02:00:04;0.50;;;0.50;;
7707;SDS011;3896;48.758;8.888;2023-05-10T02:02:35;0.40;;;0.40;;
7707;SDS011;3896;48.758;8.888;2023-05-10T02:05:03;0.30;;;0.30;;
7707;SDS011;3896;48.758;8.888;2023-05-10T02:07:31;0.33;;;0.33;;
7707;SDS011;3896;48.758;8.888;2023-05-10T02:10:02;0.53;;;0.50;;
7707;SDS011;3896;48.758;8.888;2023-05-10T02:12:31;0.50;;;0.50;;
7707;SDS011;3896;48.758;8.888;2023-05-10T02:14:59;0.97;;;0.93;;
7707;SDS011;3896;48.758;8.888;2023-05-10T02:17:27;0.90;;;0.60;;
7707;SDS011;3896;48.758;8.888;2023-05-10T02:19:55;1.23;;;0.60;;
7707;SDS011;3896;48.758;8.888;2023-05-10T02:22:22;1.27;;;0.63;;
7707;SDS011;3896;48.758;8.888;2023-05-10T02:24:49;0.60;;;0.60;;
7707;SDS011;3896;48.758;8.888;2023-05-10T02:27:15;0.77;;;0.50;;
7707;SDS011;3896;48.758;8.888;2023-05-10T02:29:44;1.03;;;0.97;;
7707;SDS011;3896;48.758;8.888;2023-05-10T02:32:10;0.50;;;0.50;;
7707;SDS011;3896;48.758;8.888;2023-05-10T02:34:37;0.47;;;0.47;;
7707;SDS011;3896;48.758;8.888;2023-05-10T02:37:04;0.50;;;0.50;;
7707;SDS011;3896;48.758;8.888;2023-05-10T02:39:30;0.40;;;0.40;;
7707;SDS011;3896;48.758;8.888;2023-05-10T02:41:57;0.43;;;0.43;;
7707;SDS011;3896;48.758;8.888;2023-05-10T02:44:23;0.40;;;0.40;;
7707;SDS011;3896;48.758;8.888;2023-05-10T02:46:51;0.50;;;0.50;;
7707;SDS011;3896;48.758;8.888;2023-05-10T02:49:17;5.30;;;0.80;;
7707;SDS011;3896;48.758;8.888;2023-05-10T02:51:50;0.70;;;0.70;;
7707;SDS011;3896;48.758;8.888;2023-05-10T02:54:20;0.57;;;0.50;;
7707;SDS011;3896;48.758;8.888;2023-05-10T02:56:53;0.83;;;0.77;;
7707;SDS011;3896;48.758;8.888;2023-05-10T02:59:23;2.00;;;0.70;;
7707;SDS011;3896;48.758;8.888;2023-05-10T03:01:48;0.70;;;0.70;;
7707;SDS011;3896;48.758;8.888;2023-05-10T03:04:14;0.70;;;0.70;;
7707;SDS011;3896;48.758;8.888;2023-05-10T03:06:40;1.50;;;0.70;;
7707;SDS011;3896;48.758;8.888;2023-05-10T03:09:06;0.77;;;0.77;;
7707;SDS011;3896;48.758;8.888;2023-05-10T03:16:46;0.60;;;0.60;;
7707;SDS011;3896;48.758;8.888;2023-05-10T03:19:17;1.43;;;0.80;;
7707;SDS011;3896;48.758;8.888;2023-05-10T03:21:50;0.87;;;0.87;;
7707;SDS011;3896;48.758;8.888;2023-05-10T03:24:18;0.80;;;0.80;;
7707;SDS011;3896;48.758;8.888;2023-05-10T03:26:47;1.70;;;1.00;;
7707;SDS011;3896;48.758;8.888;2023-05-10T03:29:14;1.37;;;0.93;;
7707;SDS011;3896;48.758;8.888;2023-05-10T03:31:41;1.03;;;1.03;;
7707;SDS011;3896;48.758;8.888;2023-05-10T03:34:07;1.00;;;1.00;;
7707;SDS011;3896;48.758;8.888;2023-05-10T03:36:33;1.53;;;1.20;;
7707;SDS011;3896;48.758;8.888;2023-05-10T03:38:58;2.73;;;1.10;;
7707;SDS011;3896;48.758;8.888;2023-05-10T03:41:24;0.90;;;0.90;;
7707;SDS011;3896;48.758;8.888;2023-05-10T03:43:50;0.80;;;0.80;;
7707;SDS011;3896;48.758;8.888;2023-05-10T03:46:16;1.57;;;0.83;;
7707;SDS011;3896;48.758;8.888;2023-05-10T03:48:41;1.00;;;1.00;;
7707;SDS011;3896;48.758;8.888;2023-05-10T03:51:07;1.17;;;1.17;;
7707;SDS011;3896;48.758;8.888;2023-05-10T03:53:33;1.07;;;1.07;;
7707;SDS011;3896;48.758;8.888;2023-05-10T03:55:58;2.37;;;1.33;;
7707;SDS011;3896;48.758;8.888;2023-05-10T03:58:24;1.00;;;1.00;;
7707;SDS011;3896;48.758;8.888;2023-05-10T04:00:50;1.33;;;1.00;;
7707;SDS011;3896;48.758;8.888;2023-05-10T04:03:16;0.77;;;0.77;;
7707;SDS011;3896;48.758;8.888;2023-05-10T04:05:42;1.73;;;0.83;;
7707;SDS011;3896;48.758;8.888;2023-05-10T04:08:08;0.70;;;0.70;;
7707;SDS011;3896;48.758;8.888;2023-05-10T04:10:33;0.80;;;0.80;;
7707;SDS011;3896;48.758;8.888;2023-05-10T04:12:59;0.73;;;0.73;;
7707;SDS011;3896;48.758;8.888;2023-05-10T04:15:25;0.70;;;0.70;;
7707;SDS011;3896;48.758;8.888;2023-05-10T04:17:50;0.80;;;0.80;;
7707;SDS011;3896;48.758;8.888;2023-05-10T04:20:16;0.60;;;0.60;;
7707;SDS011;3896;48.758;8.888;2023-05-10T04:22:41;0.87;;;0.87;;
7707;SDS011;3896;48.758;8.888;2023-05-10T04:25:07;0.90;;;0.90;;
7707;SDS011;3896;48.758;8.888;2023-05-10T04:27:33;0.93;;;0.90;;
7707;SDS011;3896;48.758;8.888;2023-05-10T04:29:58;0.83;;;0.77;;
7707;SDS011;3896;48.758;8.888;2023-05-10T04:32:24;1.30;;;1.20;;
7707;SDS011;3896;48.758;8.888;2023-05-10T04:34:50;0.80;;;0.80;;
7707;SDS011;3896;48.758;8.888;2023-05-10T04:37:16;0.73;;;0.73;;
7707;SDS011;3896;48.758;8.888;2023-05-10T04:39:42;0.97;;;0.90;;
7707;SDS011;3896;48.758;8.888;2023-05-10T04:42:08;1.73;;;1.30;;
7707;SDS011;3896;48.758;8.888;2023-05-10T04:44:34;0.80;;;0.80;;
7707;SDS011;3896;48.758;8.888;2023-05-10T04:46:59;1.47;;;1.00;;
7707;SDS011;3896;48.758;8.888;2023-05-10T04:49:27;0.80;;;0.80;;
7707;SDS011;3896;48.758;8.888;2023-05-10T04:51:52;2.40;;;1.10;;
7707;SDS011;3896;48.758;8.888;2023-05-10T04:54:18;2.97;;;0.90;;
7707;SDS011;3896;48.758;8.888;2023-05-10T04:56:43;2.13;;;1.23;;
7707;SDS011;3896;48.758;8.888;2023-05-10T04:59:09;1.00;;;1.00;;
7707;SDS011;3896;48.758;8.888;2023-05-10T05:01:35;1.70;;;0.90;;
7707;SDS011;3896;48.758;8.888;2023-05-10T05:04:00;1.50;;;1.00;;
7707;SDS011;3896;48.758;8.888;2023-05-10T05:06:26;2.30;;;0.97;;
7707;SDS011;3896;48.758;8.888;2023-05-10T05:08:52;0.80;;;0.80;;
7707;SDS011;3896;48.758;8.888;2023-05-10T05:11:18;1.37;;;0.80;;
7707;SDS011;3896;48.758;8.888;2023-05-10T05:13:43;1.20;;;1.03;;
7707;SDS011;3896;48.758;8.888;2023-05-10T05:16:09;2.53;;;0.90;;
7707;SDS011;3896;48.758;8.888;2023-05-10T05:18:35;2.63;;;1.53;;
7707;SDS011;3896;48.758;8.888;2023-05-10T05:21:01;1.63;;;1.53;;
7707;SDS011;3896;48.758;8.888;2023-05-10T05:23:27;1.00;;;1.00;;
7707;SDS011;3896;48.758;8.888;2023-05-10T05:25:52;0.90;;;0.90;;
7707;SDS011;3896;48.758;8.888;2023-05-10T05:28:19;1.63;;;0.90;;
7707;SDS011;3896;48.758;8.888;2023-05-10T05:30:45;1.27;;;0.80;;
7707;SDS011;3896;48.758;8.888;2023-05-10T05:33:11;0.87;;;0.87;;
7707;SDS011;3896;48.758;8.888;2023-05-10T05:35:38;1.70;;;1.10;;
7707;SDS011;3896;48.758;8.888;2023-05-10T05:38:04;1.20;;;1.20;;
7707;SDS011;3896;48.758;8.888;2023-05-10T05:40:30;1.00;;;1.00;;
7707;SDS011;3896;48.758;8.888;2023-05-10T05:42:55;0.80;;;0.80;;
7707;SDS011;3896;48.758;8.888;2023-05-10T05:45:21;0.97;;;0.97;;
7707;SDS011;3896;48.758;8.888;2023-05-10T05:47:46;5.20;;;1.20;;
7707;SDS011;3896;48.758;8.888;2023-05-10T05:50:12;2.13;;;1.10;;
7707;SDS011;3896;48.758;8.888;2023-05-10T05:52:37;2.53;;;1.10;;
7707;SDS011;3896;48.758;8.888;2023-05-10T05:55:03;1.40;;;1.30;;
7707;SDS011;3896;48.758;8.888;2023-05-10T05:57:29;1.83;;;1.47;;
7707;SDS011;3896;48.758;8.888;2023-05-10T05:59:55;1.00;;;1.00;;
7707;SDS011;3896;48.758;8.888;2023-05-10T06:02:20;1.43;;;1.33;;
7707;SDS011;3896;48.758;8.888;2023-05-10T06:04:46;1.70;;;1.20;;
7707;SDS011;3896;48.758;8.888;2023-05-10T06:07:12;1.40;;;1.33;;
7707;SDS011;3896;48.758;8.888;2023-05-10T06:09:37;1.83;;;1.67;;
7707;SDS011;3896;48.758;8.888;2023-05-10T06:12:03;1.50;;;1.40;;
7707;SDS011;3896;48.758;8.888;2023-05-10T06:14:28;1.43;;;1.37;;
7707;SDS011;3896;48.758;8.888;2023-05-10T06:16:54;3.17;;;2.03;;
7707;SDS011;3896;48.758;8.888;2023-05-10T06:19:20;1.57;;;1.47;;
7707;SDS011;3896;48.758;8.888;2023-05-10T06:21:45;1.77;;;1.67;;
7707;SDS011;3896;48.758;8.888;2023-05-10T06:24:11;1.50;;;1.40;;
7707;SDS011;3896;48.758;8.888;2023-05-10T06:26:36;1.33;;;1.20;;
7707;SDS011;3896;48.758;8.888;2023-05-10T06:29:02;1.43;;;1.30;;
7707;SDS011;3896;48.758;8.888;2023-05-10T06:31:27;1.40;;;1.40;;
7707;SDS011;3896;48.758;8.888;2023-05-10T06:33:53;1.57;;;1.47;;
7707;SDS011;3896;48.758;8.888;2023-05-10T06:36:18;1.50;;;1.40;;
7707;SDS011;3896;48.758;8.888;2023-05-10T06:38:44;1.67;;;1.57;;
7707;SDS011;3896;48.758;8.888;2023-05-10T06:41:09;1.70;;;1.60;;
7707;SDS011;3896;48.758;8.888;2023-05-10T06:43:35;1.80;;;1.70;;
7707;SDS011;3896;48.758;8.888;2023-05-10T06:46:01;2.73;;;1.70;;
7707;SDS011;3896;48.758;8.888;2023-05-10T06:48:27;1.30;;;1.20;;
7707;SDS011;3896;48.758;8.888;2023-05-10T06:50:53;1.70;;;1.60;;
7707;SDS011;3896;48.758;8.888;2023-05-10T06:53:18;1.27;;;1.27;;
7707;SDS011;3896;48.758;8.888;2023-05-10T06:55:44;1.30;;;1.20;;
7707;SDS011;3896;48.758;8.888;2023-05-10T06:58:09;1.30;;;1.30;;
7707;SDS011;3896;48.758;8.888;2023-05-10T07:00:35;2.20;;;1.20;;
7707;SDS011;3896;48.758;8.888;2023-05-10T07:03:05;1.40;;;1.30;;
7707;SDS011;3896;48.758;8.888;2023-05-10T07:05:32;3.53;;;2.13;;
7707;SDS011;3896;48.758;8.888;2023-05-10T07:07:57;1.93;;;1.10;;
7707;SDS011;3896;48.758;8.888;2023-05-10T07:10:23;1.87;;;1.17;;
7707;SDS011;3896;48.758;8.888;2023-05-10T07:12:49;1.20;;;1.10;;
7707;SDS011;3896;48.758;8.888;2023-05-10T07:15:15;3.23;;;1.23;;
7707;SDS011;3896;48.758;8.888;2023-05-10T07:17:40;0.90;;;0.80;;
7707;SDS011;3896;48.758;8.888;2023-05-10T07:20:06;0.77;;;0.77;;
7707;SDS011;3896;48.758;8.888;2023-05-10T07:22:32;1.40;;;0.80;;
7707;SDS011;3896;48.758;8.888;2023-05-10T07:24:58;1.00;;;1.00;;
7707;SDS011;3896;48.758;8.888;2023-05-10T07:27:23;0.97;;;0.93;;
7707;SDS011;3896;48.758;8.888;2023-05-10T07:29:49;2.23;;;1.00;;
7707;SDS011;3896;48.758;8.888;2023-05-10T07:32:15;0.73;;;0.73;;
7707;SDS011;3896;48.758;8.888;2023-05-10T07:34:41;1.90;;;0.97;;
7707;SDS011;3896;48.758;8.888;2023-05-10T07:37:06;0.70;;;0.70;;
7707;SDS011;3896;48.758;8.888;2023-05-10T07:39:32;0.70;;;0.70;;
7707;SDS011;3896;48.758;8.888;2023-05-10T07:41:58;2.43;;;0.80;;
7707;SDS011;3896;48.758;8.888;2023-05-10T07:44:23;1.10;;;0.80;;
7707;SDS011;3896;48.758;8.888;2023-05-10T07:46:49;0.70;;;0.70;;
7707;SDS011;3896;48.758;8.888;2023-05-10T07:49:14;2.50;;;0.90;;
7707;SDS011;3896;48.758;8.888;2023-05-10T07:51:40;0.70;;;0.70;;
7707;SDS011;3896;48.758;8.888;2023-05-10T07:54:07;1.57;;;0.60;;
7707;SDS011;3896;48.758;8.888;2023-05-10T07:56:32;1.43;;;1.30;;
7707;SDS011;3896;48.758;8.888;2023-05-10T07:58:58;0.90;;;0.60;;
7707;SDS011;3896;48.758;8.888;2023-05-10T08:01:25;0.70;;;0.70;;
7707;SDS011;3896;48.758;8.888;2023-05-10T08:03:51;0.60;;;0.60;;
7707;SDS011;3896;48.758;8.888;2023-05-10T08:06:18;0.80;;;0.80;;
7707;SDS011;3896;48.758;8.888;2023-05-10T08:08:45;0.63;;;0.60;;
7707;SDS011;3896;48.758;8.888;2023-05-10T08:11:14;0.57;;;0.57;;
7707;SDS011;3896;48.758;8.888;2023-05-10T08:13:40;0.83;;;0.60;;
7707;SDS011;3896;48.758;8.888;2023-05-10T08:16:06;1.00;;;0.80;;
7707;SDS011;3896;48.758;8.888;2023-05-10T08:18:32;0.70;;;0.50;;
7707;SDS011;3896;48.758;8.888;2023-05-10T08:20:57;1.57;;;0.50;;
7707;SDS011;3896;48.758;8.888;2023-05-10T08:23:23;1.27;;;0.93;;
7707;SDS011;3896;48.758;8.888;2023-05-10T08:25:48;0.53;;;0.53;;
7707;SDS011;3896;48.758;8.888;2023-05-10T08:28:14;0.40;;;0.40;;
7707;SDS011;3896;48.758;8.888;2023-05-10T08:30:40;1.23;;;0.40;;
7707;SDS011;3896;48.758;8.888;2023-05-10T08:33:05;0.30;;;0.30;;
7707;SDS011;3896;48.758;8.888;2023-05-10T08:35:31;0.53;;;0.53;;
7707;SDS011;3896;48.758;8.888;2023-05-10T08:37:58;0.50;;;0.43;;
7707;SDS011;3896;48.758;8.888;2023-05-10T08:40:23;0.40;;;0.40;;
7707;SDS011;3896;48.758;8.888;2023-05-10T08:42:58;0.30;;;0.30;;
7707;SDS011;3896;48.758;8.888;2023-05-10T08:45:32;0.67;;;0.43;;
7707;SDS011;3896;48.758;8.888;2023-05-10T08:48:02;0.30;;;0.30;;
7707;SDS011;3896;48.758;8.888;2023-05-10T08:50:29;0.40;;;0.40;;
7707;SDS011;3896;48.758;8.888;2023-05-10T08:52:57;0.97;;;0.77;;
7707;SDS011;3896;48.758;8.888;2023-05-10T08:55:25;2.40;;;0.50;;
7707;SDS011;3896;48.758;8.888;2023-05-10T08:57:51;1.73;;;0.60;;
7707;SDS011;3896;48.758;8.888;2023-05-10T09:00:16;1.27;;;1.17;;
7707;SDS011;3896;48.758;8.888;2023-05-10T09:02:43;2.20;;;0.53;;
7707;SDS011;3896;48.758;8.888;2023-05-10T09:05:10;0.70;;;0.50;;
7707;SDS011;3896;48.758;8.888;2023-05-10T09:07:37;0.50;;;0.50;;
7707;SDS011;3896;48.758;8.888;2023-05-10T09:10:02;0.73;;;0.43;;
7707;SDS011;3896;48.758;8.888;2023-05-10T09:12:31;0.73;;;0.37;;
7707;SDS011;3896;48.758;8.888;2023-05-10T09:14:58;0.50;;;0.50;;
7707;SDS011;3896;48.758;8.888;2023-05-10T09:17:25;0.60;;;0.60;;
7707;SDS011;3896;48.758;8.888;2023-05-10T09:19:58;0.60;;;0.60;;
7707;SDS011;3896;48.758;8.888;2023-05-10T09:22:25;0.70;;;0.60;;
7707;SDS011;3896;48.758;8.888;2023-05-10T09:25:07;0.40;;;0.40;;
7707;SDS011;3896;48.758;8.888;2023-05-10T09:27:34;3.07;;;0.80;;
7707;SDS011;3896;48.758;8.888;2023-05-10T09:30:01;0.40;;;0.40;;
7707;SDS011;3896;48.758;8.888;2023-05-10T09:35:26;1.30;;;0.60;;
7707;SDS011;3896;48.758;8.888;2023-05-10T09:37:53;0.50;;;0.50;;
7707;SDS011;3896;48.758;8.888;2023-05-10T09:40:20;1.33;;;0.70;;
7707;SDS011;3896;48.758;8.888;2023-05-10T09:42:51;1.30;;;0.37;;
7707;SDS011;3896;48.758;8.888;2023-05-10T09:45:24;1.30;;;0.53;;
7707;SDS011;3896;48.758;8.888;2023-05-10T09:47:52;1.97;;;0.60;;
7707;SDS011;3896;48.758;8.888;2023-05-10T09:50:18;1.40;;;0.33;;
7707;SDS011;3896;48.758;8.888;2023-05-10T09:52:48;0.60;;;0.60;;
7707;SDS011;3896;48.758;8.888;2023-05-10T09:55:14;3.77;;;0.57;;
7707;SDS011;3896;48.758;8.888;2023-05-10T09:57:40;0.80;;;0.60;;
7707;SDS011;3896;48.758;8.888;2023-05-10T10:00:06;0.53;;;0.40;;
7707;SDS011;3896;48.758;8.888;2023-05-10T10:02:35;0.40;;;0.40;;
7707;SDS011;3896;48.758;8.888;2023-05-10T10:05:01;0.53;;;0.40;;
7707;SDS011;3896;48.758;8.888;2023-05-10T10:07:28;0.30;;;0.30;;
7707;SDS011;3896;48.758;8.888;2023-05-10T10:09:54;1.70;;;0.50;;
7707;SDS011;3896;48.758;8.888;2023-05-10T10:12:20;0.60;;;0.40;;
7707;SDS011;3896;48.758;8.888;2023-05-10T10:14:46;1.80;;;0.40;;
7707;SDS011;3896;48.758;8.888;2023-05-10T10:17:13;0.30;;;0.30;;
7707;SDS011;3896;48.758;8.888;2023-05-10T10:19:39;2.77;;;0.50;;
7707;SDS011;3896;48.758;8.888;2023-05-10T10:22:06;0.40;;;0.40;;
7707;SDS011;3896;48.758;8.888;2023-05-10T10:24:32;1.93;;;0.40;;
7707;SDS011;3896;48.758;8.888;2023-05-10T10:27:00;0.47;;;0.30;;
7707;SDS011;3896;48.758;8.888;2023-05-10T10:29:52;0.87;;;0.43;;
7707;SDS011;3896;48.758;8.888;2023-05-10T10:32:33;0.30;;;0.30;;
7707;SDS011;3896;48.758;8.888;2023-05-10T10:35:11;0.70;;;0.30;;
7707;SDS011;3896;48.758;8.888;2023-05-10T10:37:41;3.03;;;0.50;;
7707;SDS011;3896;48.758;8.888;2023-05-10T10:40:25;0.30;;;0.30;;
7707;SDS011;3896;48.758;8.888;2023-05-10T10:42:55;0.33;;;0.33;;
7707;SDS011;3896;48.758;8.888;2023-05-10T10:45:22;1.03;;;0.30;;
7707;SDS011;3896;48.758;8.888;2023-05-10T10:47:48;1.50;;;0.50;;
7707;SDS011;3896;48.758;8.888;2023-05-10T10:50:18;2.37;;;0.40;;
7707;SDS011;3896;48.758;8.888;2023-05-10T10:52:44;0.40;;;0.40;;
7707;SDS011;3896;48.758;8.888;2023-05-10T10:55:14;0.97;;;0.50;;
7707;SDS011;3896;48.758;8.888;2023-05-10T10:57:50;0.57;;;0.40;;
7707;SDS011;3896;48.758;8.888;2023-05-10T11:02:49;0.67;;;0.40;;
7707;SDS011;3896;48.758;8.888;2023-05-10T11:05:22;1.50;;;0.40;;
7707;SDS011;3896;48.758;8.888;2023-05-10T11:07:52;0.53;;;0.43;;
7707;SDS011;3896;48.758;8.888;2023-05-10T11:10:21;1.80;;;0.50;;
7707;SDS011;3896;48.758;8.888;2023-05-10T11:12:58;0.67;;;0.57;;
7707;SDS011;3896;48.758;8.888;2023-05-10T11:15:32;1.97;;;0.53;;
7707;SDS011;3896;48.758;8.888;2023-05-10T11:17:59;1.67;;;1.43;;
7707;SDS011;3896;48.758;8.888;2023-05-10T11:20:28;0.50;;;0.50;;
7707;SDS011;3896;48.758;8.888;2023-05-10T11:23:00;1.03;;;0.60;;
7707;SDS011;3896;48.758;8.888;2023-05-10T11:25:41;0.50;;;0.50;;
7707;SDS011;3896;48.758;8.888;2023-05-10T11:28:10;1.57;;;0.70;;
7707;SDS011;3896;48.758;8.888;2023-05-10T11:30:40;0.90;;;0.60;;
7707;SDS011;3896;48.758;8.888;2023-05-10T11:33:06;0.70;;;0.40;;
7707;SDS011;3896;48.758;8.888;2023-05-10T11:35:39;0.57;;;0.33;;
7707;SDS011;3896;48.758;8.888;2023-05-10T11:38:08;1.53;;;0.90;;
7707;SDS011;3896;48.758;8.888;2023-05-10T11:40:35;0.50;;;0.50;;
7707;SDS011;3896;48.758;8.888;2023-05-10T11:43:02;2.03;;;0.73;;
7707;SDS011;3896;48.758;8.888;2023-05-10T11:45:28;1.23;;;0.77;;
7707;SDS011;3896;48.758;8.888;2023-05-10T11:47:55;2.20;;;0.90;;
7707;SDS011;3896;48.758;8.888;2023-05-10T11:50:21;1.03;;;0.80;;
7707;SDS011;3896;48.758;8.888;2023-05-10T11:52:51;2.07;;;0.83;;
7707;SDS011;3896;48.758;8.888;2023-05-10T11:55:17;1.57;;;0.80;;
7707;SDS011;3896;48.758;8.888;2023-05-10T11:57:43;0.90;;;0.80;;
7707;SDS011;3896;48.758;8.888;2023-05-10T12:00:11;1.40;;;0.70;;
7707;SDS011;3896;48.758;8.888;2023-05-10T12:02:37;1.23;;;0.73;;
7707;SDS011;3896;48.758;8.888;2023-05-10T12:05:03;0.77;;;0.77;;
7707;SDS011;3896;48.758;8.888;2023-05-10T12:07:30;2.07;;;0.80;;
7707;SDS011;3896;48.758;8.888;2023-05-10T12:12:52;1.50;;;0.70;;
7707;SDS011;3896;48.758;8.888;2023-05-10T12:15:22;2.27;;;0.80;;
7707;SDS011;3896;48.758;8.888;2023-05-10T12:17:48;0.60;;;0.60;;
7707;SDS011;3896;48.758;8.888;2023-05-10T12:20:26;1.27;;;0.80;;
7707;SDS011;3896;48.758;8.888;2023-05-10T12:22:53;1.53;;;1.30;;
7707;SDS011;3896;48.758;8.888;2023-05-10T12:25:21;1.50;;;0.90;;
7707;SDS011;3896;48.758;8.888;2023-05-10T12:27:58;2.70;;;1.00;;
7707;SDS011;3896;48.758;8.888;2023-05-10T12:30:28;1.50;;;1.00;;
7707;SDS011;3896;48.758;8.888;2023-05-10T12:33:08;2.63;;;0.73;;
7707;SDS011;3896;48.758;8.888;2023-05-10T12:35:46;1.27;;;0.90;;
7707;SDS011;3896;48.758;8.888;2023-05-10T12:38:46;1.10;;;0.73;;
7707;SDS011;3896;48.758;8.888;2023-05-10T12:41:11;1.77;;;1.00;;
7707;SDS011;3896;48.758;8.888;2023-05-10T12:43:38;0.80;;;0.80;;
7707;SDS011;3896;48.758;8.888;2023-05-10T12:46:14;0.60;;;0.60;;
7707;SDS011;3896;48.758;8.888;2023-05-10T12:48:41;1.33;;;0.77;;
7707;SDS011;3896;48.758;8.888;2023-05-10T12:51:08;3.13;;;0.70;;
7707;SDS011;3896;48.758;8.888;2023-05-10T12:53:34;1.73;;;0.63;;
7707;SDS011;3896;48.758;8.888;2023-05-10T12:56:00;1.67;;;0.80;;
7707;SDS011;3896;48.758;8.888;2023-05-10T12:58:26;2.43;;;0.97;;
7707;SDS011;3896;48.758;8.888;2023-05-10T13:00:52;1.97;;;0.70;;
7707;SDS011;3896;48.758;8.888;2023-05-10T13:03:18;1.17;;;1.00;;
7707;SDS011;3896;48.758;8.888;2023-05-10T13:05:44;1.27;;;0.80;;
7707;SDS011;3896;48.758;8.888;2023-05-10T13:08:10;1.77;;;1.00;;
7707;SDS011;3896;48.758;8.888;2023-05-10T13:10:35;2.57;;;0.70;;
7707;SDS011;3896;48.758;8.888;2023-05-10T13:13:01;0.97;;;0.77;;
7707;SDS011;3896;48.758;8.888;2023-05-10T13:15:27;0.50;;;0.50;;
7707;SDS011;3896;48.758;8.888;2023-05-10T13:17:53;1.37;;;0.80;;
7707;SDS011;3896;48.758;8.888;2023-05-10T13:20:19;1.27;;;0.80;;
7707;SDS011;3896;48.758;8.888;2023-05-10T13:22:45;0.93;;;0.70;;
7707;SDS011;3896;48.758;8.888;2023-05-10T13:25:11;0.50;;;0.50;;
7707;SDS011;3896;48.758;8.888;2023-05-10T13:27:38;1.50;;;0.63;;
7707;SDS011;3896;48.758;8.888;2023-05-10T13:30:04;1.73;;;0.67;;
7707;SDS011;3896;48.758;8.888;2023-05-10T13:32:30;1.20;;;0.50;;
7707;SDS011;3896;48.758;8.888;2023-05-10T13:34:56;1.43;;;0.63;;
7707;SDS011;3896;48.758;8.888;2023-05-10T13:37:21;2.97;;;1.00;;
7707;SDS011;3896;48.758;8.888;2023-05-10T13:39:47;1.43;;;0.70;;
7707;SDS011;3896;48.758;8.888;2023-05-10T13:42:13;1.63;;;0.60;;
7707;SDS011;3896;48.758;8.888;2023-05-10T13:44:39;2.33;;;0.63;;
7707;SDS011;3896;48.758;8.888;2023-05-10T13:47:05;1.60;;;0.30;;
7707;SDS011;3896;48.758;8.888;2023-05-10T13:49:31;0.40;;;0.40;;
7707;SDS011;3896;48.758;8.888;2023-05-10T13:51:56;1.17;;;0.70;;
7707;SDS011;3896;48.758;8.888;2023-05-10T13:54:23;0.33;;;0.33;;
7707;SDS011;3896;48.758;8.888;2023-05-10T13:56:49;7.20;;;0.80;;
7707;SDS011;3896;48.758;8.888;2023-05-10T13:59:14;0.87;;;0.50;;
7707;SDS011;3896;48.758;8.888;2023-05-10T14:01:40;0.70;;;0.50;;
7707;SDS011;3896;48.758;8.888;2023-05-10T14:04:07;2.47;;;0.60;;
7707;SDS011;3896;48.758;8.888;2023-05-10T14:06:35;0.87;;;0.60;;
7707;SDS011;3896;48.758;8.888;2023-05-10T14:09:01;1.90;;;0.80;;
7707;SDS011;3896;48.758;8.888;2023-05-10T14:11:27;1.00;;;0.50;;
7707;SDS011;3896;48.758;8.888;2023-05-10T14:13:53;1.27;;;0.70;;
7707;SDS011;3896;48.758;8.888;2023-05-10T14:16:18;0.60;;;0.60;;
7707;SDS011;3896;48.758;8.888;2023-05-10T14:18:45;2.03;;;0.50;;
7707;SDS011;3896;48.758;8.888;2023-05-10T14:21:10;1.40;;;0.50;;
7707;SDS011;3896;48.758;8.888;2023-05-10T14:23:36;1.03;;;0.93;;
7707;SDS011;3896;48.758;8.888;2023-05-10T14:26:02;1.10;;;0.60;;
7707;SDS011;3896;48.758;8.888;2023-05-10T14:28:28;0.67;;;0.50;;
7707;SDS011;3896;48.758;8.888;2023-05-10T14:30:53;1.67;;;0.73;;
7707;SDS011;3896;48.758;8.888;2023-05-10T14:33:19;1.80;;;0.70;;
7707;SDS011;3896;48.758;8.888;2023-05-10T14:35:45;0.87;;;0.60;;
7707;SDS011;3896;48.758;8.888;2023-05-10T14:38:11;1.10;;;0.50;;
7707;SDS011;3896;48.758;8.888;2023-05-10T14:40:37;3.20;;;0.70;;
7707;SDS011;3896;48.758;8.888;2023-05-10T14:43:03;1.07;;;0.60;;
7707;SDS011;3896;48.758;8.888;2023-05-10T14:45:28;1.77;;;0.80;;
7707;SDS011;3896;48.758;8.888;2023-05-10T14:47:54;0.40;;;0.40;;
7707;SDS011;3896;48.758;8.888;2023-05-10T14:50:20;1.97;;;0.60;;
7707;SDS011;3896;48.758;8.888;2023-05-10T14:52:45;0.97;;;0.37;;
7707;SDS011;3896;48.758;8.888;2023-05-10T14:55:11;3.30;;;0.57;;
7707;SDS011;3896;48.758;8.888;2023-05-10T14:57:37;0.50;;;0.50;;
7707;SDS011;3896;48.758;8.888;2023-05-10T15:00:03;0.53;;;0.50;;
7707;SDS011;3896;48.758;8.888;2023-05-10T15:02:30;0.60;;;0.60;;
7707;SDS011;3896;48.758;8.888;2023-05-10T15:04:56;0.87;;;0.40;;
7707;SDS011;3896;48.758;8.888;2023-05-10T15:07:22;2.10;;;0.50;;
7707;SDS011;3896;48.758;8.888;2023-05-10T15:09:48;0.37;;;0.37;;
7707;SDS011;3896;48.758;8.888;2023-05-10T15:12:15;0.50;;;0.50;;
7707;SDS011;3896;48.758;8.888;2023-05-10T15:14:40;3.27;;;0.50;;
7707;SDS011;3896;48.758;8.888;2023-05-10T15:17:06;1.30;;;0.30;;
7707;SDS011;3896;48.758;8.888;2023-05-10T15:19:32;1.33;;;0.60;;
7707;SDS011;3896;48.758;8.888;2023-05-10T15:21:58;1.30;;;0.60;;
7707;SDS011;3896;48.758;8.888;2023-05-10T15:24:24;1.70;;;0.53;;
7707;SDS011;3896;48.758;8.888;2023-05-10T15:26:50;2.90;;;0.40;;
7707;SDS011;3896;48.758;8.888;2023-05-10T15:29:15;1.07;;;0.40;;
7707;SDS011;3896;48.758;8.888;2023-05-10T15:31:45;1.20;;;0.33;;